sensor_id;sensor_type;location;lat;lon;timestamp;P1;durP1;ratioP1;P2;durP2;ratioP2
1685;SDS011;840;47.980;7.830;2023-04-06T00:00:31;3.53;;;3.23;;
1685;SDS011;840;47.980;7.830;2023-04-06T00:02:58;7.30;;;4.00;;
1685;SDS011;840;47.980;7.830;2023-04-06T00:05:24;4.40;;;3.97;;
1685;SDS011;840;47.980;7.830;2023-04-06T00:07:54;3.63;;;3.33;;
1685;SDS011;840;47.980;7.830;2023-04-06T00:10:21;4.07;;;3.73;;
1685;SDS011;840;47.980;7.830;2023-04-06T00:12:47;4.50;;;3.97;;
1685;SDS011;840;47.980;7.830;2023-04-06T00:15:14;5.60;;;3.90;;
1685;SDS011;840;47.980;7.830;2023-04-06T00:17:41;3.43;;;2.90;;
1685;SDS011;840;47.980;7.830;2023-04-06T00:20:08;6.80;;;3.80;;
1685;SDS011;840;47.980;7.830;2023-04-06T00:22:35;4.20;;;2.83;;
1685;SDS011;840;47.980;7.830;2023-04-06T00:25:04;5.40;;;4.90;;
1685;SDS011;840;47.980;7.830;2023-04-06T00:27:31;3.17;;;2.90;;
1685;SDS011;840;47.980;7.830;2023-04-06T00:29:58;5.30;;;4.20;;
1685;SDS011;840;47.980;7.830;2023-04-06T00:32:25;3.83;;;3.53;;
1685;SDS011;840;47.980;7.830;2023-04-06T00:34:52;5.07;;;4.03;;
1685;SDS011;840;47.980;7.830;2023-04-06T00:37:19;3.90;;;3.40;;
1685;SDS011;840;47.980;7.830;2023-04-06T00:39:46;3.80;;;3.50;;
1685;SDS011;840;47.980;7.830;2023-04-06T00:42:14;3.93;;;3.60;;
1685;SDS011;840;47.980;7.830;2023-04-06T00:44:41;4.20;;;3.90;;
1685;SDS011;840;47.980;7.830;2023-04-06T00:47:08;3.77;;;3.47;;
1685;SDS011;840;47.980;7.830;2023-04-06T00:49:35;3.93;;;3.60;;
1685;SDS011;840;47.980;7.830;2023-04-06T00:52:02;5.90;;;3.40;;
1685;SDS011;840;47.980;7.830;2023-04-06T00:54:29;4.33;;;3.47;;
1685;SDS011;840;47.980;7.830;2023-04-06T00:56:56;4.97;;;3.37;;
1685;SDS011;840;47.980;7.830;2023-04-06T00:59:25;4.40;;;3.40;;
1685;SDS011;840;47.980;7.830;2023-04-06T01:01:54;3.23;;;3.03;;
1685;SDS011;840;47.980;7.830;2023-04-06T01:04:21;3.83;;;3.43;;
1685;SDS011;840;47.980;7.830;2023-04-06T01:06:51;5.87;;;4.27;;
1685;SDS011;840;47.980;7.830;2023-04-06T01:09:17;4.03;;;3.73;;
1685;SDS011;840;47.980;7.830;2023-04-06T01:11:44;3.87;;;3.27;;
1685;SDS011;840;47.980;7.830;2023-04-06T01:14:11;3.17;;;2.93;;
1685;SDS011;840;47.980;7.830;2023-04-06T01:16:40;4.13;;;3.63;;
1685;SDS011;840;47.980;7.830;2023-04-06T01:19:07;3.87;;;3.23;;
1685;SDS011;840;47.980;7.830;2023-04-06T01:21:35;4.20;;;3.80;;
1685;SDS011;840;47.980;7.830;2023-04-06T01:24:03;3.90;;;3.60;;
1685;SDS011;840;47.980;7.830;2023-04-06T01:26:32;3.77;;;3.47;;
1685;SDS011;840;47.980;7.830;2023-04-06T01:28:59;3.70;;;3.40;;
1685;SDS011;840;47.980;7.830;2023-04-06T01:31:26;3.80;;;3.50;;
1685;SDS011;840;47.980;7.830;2023-04-06T01:33:53;3.60;;;3.20;;
1685;SDS011;840;47.980;7.830;2023-04-06T01:36:20;3.77;;;3.57;;
1685;SDS011;840;47.980;7.830;2023-04-06T01:38:47;3.40;;;3.20;;
1685;SDS011;840;47.980;7.830;2023-04-06T01:41:16;4.90;;;3.90;;
1685;SDS011;840;47.980;7.830;2023-04-06T01:43:43;4.40;;;4.00;;
1685;SDS011;840;47.980;7.830;2023-04-06T01:46:10;4.33;;;3.90;;
1685;SDS011;840;47.980;7.830;2023-04-06T01:48:37;4.67;;;4.40;;
1685;SDS011;840;47.980;7.830;2023-04-06T01:51:04;4.90;;;4.27;;
1685;SDS011;840;47.980;7.830;2023-04-06T01:53:31;4.27;;;3.30;;
1685;SDS011;840;47.980;7.830;2023-04-06T01:55:58;4.50;;;4.10;;
1685;SDS011;840;47.980;7.830;2023-04-06T01:58:26;3.93;;;3.63;;
1685;SDS011;840;47.980;7.830;2023-04-06T02:00:53;4.60;;;4.20;;
1685;SDS011;840;47.980;7.830;2023-04-06T02:03:20;3.43;;;3.23;;
1685;SDS011;840;47.980;7.830;2023-04-06T02:05:47;4.43;;;3.37;;
1685;SDS011;840;47.980;7.830;2023-04-06T02:08:14;4.13;;;3.70;;
1685;SDS011;840;47.980;7.830;2023-04-06T02:10:41;4.70;;;3.43;;
1685;SDS011;840;47.980;7.830;2023-04-06T02:13:07;3.67;;;3.37;;
1685;SDS011;840;47.980;7.830;2023-04-06T02:15:36;3.60;;;3.40;;
1685;SDS011;840;47.980;7.830;2023-04-06T02:18:03;3.87;;;3.67;;
1685;SDS011;840;47.980;7.830;2023-04-06T02:20:29;4.80;;;3.43;;
1685;SDS011;840;47.980;7.830;2023-04-06T02:22:58;3.77;;;3.47;;
1685;SDS011;840;47.980;7.830;2023-04-06T02:25:25;3.60;;;3.30;;
1685;SDS011;840;47.980;7.830;2023-04-06T02:27:52;4.20;;;3.80;;
1685;SDS011;840;47.980;7.830;2023-04-06T02:30:19;4.70;;;3.67;;
1685;SDS011;840;47.980;7.830;2023-04-06T02:32:47;4.00;;;3.70;;
1685;SDS011;840;47.980;7.830;2023-04-06T02:35:14;5.10;;;4.60;;
1685;SDS011;840;47.980;7.830;2023-04-06T02:37:41;3.50;;;3.27;;
1685;SDS011;840;47.980;7.830;2023-04-06T02:40:08;3.73;;;3.53;;
1685;SDS011;840;47.980;7.830;2023-04-06T02:42:36;3.43;;;3.13;;
1685;SDS011;840;47.980;7.830;2023-04-06T02:45:03;7.00;;;5.07;;
1685;SDS011;840;47.980;7.830;2023-04-06T02:47:31;2.97;;;2.77;;
1685;SDS011;840;47.980;7.830;2023-04-06T02:50:00;3.37;;;3.17;;
1685;SDS011;840;47.980;7.830;2023-04-06T02:52:27;4.17;;;3.77;;
1685;SDS011;840;47.980;7.830;2023-04-06T02:54:54;4.33;;;3.93;;
1685;SDS011;840;47.980;7.830;2023-04-06T02:57:21;2.90;;;2.70;;
1685;SDS011;840;47.980;7.830;2023-04-06T02:59:47;3.57;;;3.27;;
1685;SDS011;840;47.980;7.830;2023-04-06T03:02:14;3.20;;;3.00;;
1685;SDS011;840;47.980;7.830;2023-04-06T03:04:42;3.37;;;3.07;;
1685;SDS011;840;47.980;7.830;2023-04-06T03:07:10;7.00;;;3.93;;
1685;SDS011;840;47.980;7.830;2023-04-06T03:09:38;3.70;;;3.40;;
1685;SDS011;840;47.980;7.830;2023-04-06T03:12:05;3.93;;;3.37;;
1685;SDS011;840;47.980;7.830;2023-04-06T03:14:32;4.03;;;3.40;;
1685;SDS011;840;47.980;7.830;2023-04-06T03:16:59;3.17;;;2.97;;
1685;SDS011;840;47.980;7.830;2023-04-06T03:19:27;3.53;;;3.27;;
1685;SDS011;840;47.980;7.830;2023-04-06T03:21:54;4.73;;;3.10;;
1685;SDS011;840;47.980;7.830;2023-04-06T03:24:22;3.67;;;3.37;;
1685;SDS011;840;47.980;7.830;2023-04-06T03:26:49;3.70;;;3.43;;
1685;SDS011;840;47.980;7.830;2023-04-06T03:29:16;3.83;;;3.47;;
1685;SDS011;840;47.980;7.830;2023-04-06T03:31:43;4.87;;;4.47;;
1685;SDS011;840;47.980;7.830;2023-04-06T03:34:10;4.40;;;3.87;;
1685;SDS011;840;47.980;7.830;2023-04-06T03:36:37;4.07;;;3.67;;
1685;SDS011;840;47.980;7.830;2023-04-06T03:39:04;3.67;;;3.40;;
1685;SDS011;840;47.980;7.830;2023-04-06T03:41:32;4.20;;;3.80;;
1685;SDS011;840;47.980;7.830;2023-04-06T03:43:59;5.70;;;3.97;;
1685;SDS011;840;47.980;7.830;2023-04-06T03:46:25;3.80;;;3.57;;
1685;SDS011;840;47.980;7.830;2023-04-06T03:48:52;4.40;;;4.00;;
1685;SDS011;840;47.980;7.830;2023-04-06T03:51:19;6.33;;;3.90;;
1685;SDS011;840;47.980;7.830;2023-04-06T03:53:46;4.90;;;4.17;;
1685;SDS011;840;47.980;7.830;2023-04-06T03:56:13;4.40;;;4.07;;
1685;SDS011;840;47.980;7.830;2023-04-06T03:58:42;4.90;;;4.23;;
1685;SDS011;840;47.980;7.830;2023-04-06T04:01:10;4.10;;;3.80;;
1685;SDS011;840;47.980;7.830;2023-04-06T04:03:37;5.10;;;4.07;;
1685;SDS011;840;47.980;7.830;2023-04-06T04:06:03;4.27;;;3.43;;
1685;SDS011;840;47.980;7.830;2023-04-06T04:08:30;4.50;;;3.70;;
1685;SDS011;840;47.980;7.830;2023-04-06T04:10:57;4.10;;;3.47;;
1685;SDS011;840;47.980;7.830;2023-04-06T04:13:24;7.73;;;3.37;;
1685;SDS011;840;47.980;7.830;2023-04-06T04:15:54;4.53;;;3.87;;
1685;SDS011;840;47.980;7.830;2023-04-06T04:18:21;4.30;;;3.63;;
1685;SDS011;840;47.980;7.830;2023-04-06T04:20:48;5.57;;;4.20;;
1685;SDS011;840;47.980;7.830;2023-04-06T04:23:15;4.97;;;4.27;;
1685;SDS011;840;47.980;7.830;2023-04-06T04:25:42;3.40;;;3.20;;
1685;SDS011;840;47.980;7.830;2023-04-06T04:28:10;8.03;;;3.70;;
1685;SDS011;840;47.980;7.830;2023-04-06T04:30:37;4.50;;;3.50;;
1685;SDS011;840;47.980;7.830;2023-04-06T04:33:05;3.83;;;3.57;;
1685;SDS011;840;47.980;7.830;2023-04-06T04:35:32;4.33;;;3.93;;
1685;SDS011;840;47.980;7.830;2023-04-06T04:37:59;4.93;;;4.43;;
1685;SDS011;840;47.980;7.830;2023-04-06T04:40:26;6.43;;;4.80;;
1685;SDS011;840;47.980;7.830;2023-04-06T04:42:53;3.93;;;3.40;;
1685;SDS011;840;47.980;7.830;2023-04-06T04:45:20;6.17;;;4.03;;
1685;SDS011;840;47.980;7.830;2023-04-06T04:47:47;4.27;;;3.87;;
1685;SDS011;840;47.980;7.830;2023-04-06T04:50:15;4.30;;;4.00;;
1685;SDS011;840;47.980;7.830;2023-04-06T04:52:42;4.00;;;3.67;;
1685;SDS011;840;47.980;7.830;2023-04-06T04:55:09;9.87;;;3.47;;
1685;SDS011;840;47.980;7.830;2023-04-06T04:57:36;5.83;;;3.90;;
1685;SDS011;840;47.980;7.830;2023-04-06T05:00:04;4.30;;;4.00;;
1685;SDS011;840;47.980;7.830;2023-04-06T05:02:32;4.50;;;4.20;;
1685;SDS011;840;47.980;7.830;2023-04-06T05:04:59;7.53;;;5.70;;
1685;SDS011;840;47.980;7.830;2023-04-06T05:07:28;5.90;;;3.97;;
1685;SDS011;840;47.980;7.830;2023-04-06T05:09:54;5.13;;;4.23;;
1685;SDS011;840;47.980;7.830;2023-04-06T05:12:21;4.00;;;3.67;;
1685;SDS011;840;47.980;7.830;2023-04-06T05:14:48;6.37;;;4.70;;
1685;SDS011;840;47.980;7.830;2023-04-06T05:17:15;4.07;;;3.50;;
1685;SDS011;840;47.980;7.830;2023-04-06T05:19:42;4.90;;;3.60;;
1685;SDS011;840;47.980;7.830;2023-04-06T05:22:10;6.53;;;4.30;;
1685;SDS011;840;47.980;7.830;2023-04-06T05:24:40;4.43;;;4.03;;
1685;SDS011;840;47.980;7.830;2023-04-06T05:27:07;4.57;;;3.90;;
1685;SDS011;840;47.980;7.830;2023-04-06T05:29:33;5.60;;;4.40;;
1685;SDS011;840;47.980;7.830;2023-04-06T05:32:00;6.27;;;4.73;;
1685;SDS011;840;47.980;7.830;2023-04-06T05:34:27;6.60;;;4.50;;
1685;SDS011;840;47.980;7.830;2023-04-06T05:36:54;5.47;;;4.97;;
1685;SDS011;840;47.980;7.830;2023-04-06T05:39:21;6.83;;;4.60;;
1685;SDS011;840;47.980;7.830;2023-04-06T05:41:50;4.50;;;4.10;;
1685;SDS011;840;47.980;7.830;2023-04-06T05:44:17;5.40;;;4.60;;
1685;SDS011;840;47.980;7.830;2023-04-06T05:46:44;4.80;;;4.30;;
1685;SDS011;840;47.980;7.830;2023-04-06T05:49:10;4.73;;;4.33;;
1685;SDS011;840;47.980;7.830;2023-04-06T05:51:37;5.07;;;4.67;;
1685;SDS011;840;47.980;7.830;2023-04-06T05:54:04;5.23;;;4.20;;
1685;SDS011;840;47.980;7.830;2023-04-06T05:56:31;4.30;;;3.90;;
1685;SDS011;840;47.980;7.830;2023-04-06T05:59:00;5.97;;;4.85;;
1685;SDS011;840;47.980;7.830;2023-04-06T06:01:27;5.00;;;4.60;;
1685;SDS011;840;47.980;7.830;2023-04-06T06:03:54;9.63;;;4.17;;
1685;SDS011;840;47.980;7.830;2023-04-06T06:06:20;6.95;;;5.20;;
1685;SDS011;840;47.980;7.830;2023-04-06T06:08:47;7.73;;;7.03;;
1685;SDS011;840;47.980;7.830;2023-04-06T06:11:14;5.73;;;5.33;;
1685;SDS011;840;47.980;7.830;2023-04-06T06:13:41;4.53;;;4.13;;
1685;SDS011;840;47.980;7.830;2023-04-06T06:16:09;6.10;;;4.60;;
1685;SDS011;840;47.980;7.830;2023-04-06T06:18:36;5.13;;;4.30;;
1685;SDS011;840;47.980;7.830;2023-04-06T06:21:03;4.90;;;4.23;;
1685;SDS011;840;47.980;7.830;2023-04-06T06:23:30;4.53;;;4.13;;
1685;SDS011;840;47.980;7.830;2023-04-06T06:25:57;4.88;;;4.40;;
1685;SDS011;840;47.980;7.830;2023-04-06T06:28:24;6.60;;;4.50;;
1685;SDS011;840;47.980;7.830;2023-04-06T06:30:51;7.03;;;4.50;;
1685;SDS011;840;47.980;7.830;2023-04-06T06:33:20;9.13;;;4.80;;
1685;SDS011;840;47.980;7.830;2023-04-06T06:35:47;4.97;;;4.30;;
1685;SDS011;840;47.980;7.830;2023-04-06T06:38:15;4.33;;;4.03;;
1685;SDS011;840;47.980;7.830;2023-04-06T06:40:42;4.93;;;3.63;;
1685;SDS011;840;47.980;7.830;2023-04-06T06:43:09;4.60;;;4.20;;
1685;SDS011;840;47.980;7.830;2023-04-06T06:45:36;4.03;;;3.67;;
1685;SDS011;840;47.980;7.830;2023-04-06T06:48:03;5.20;;;4.33;;
1685;SDS011;840;47.980;7.830;2023-04-06T06:50:31;5.40;;;5.00;;
1685;SDS011;840;47.980;7.830;2023-04-06T06:52:58;5.27;;;4.77;;
1685;SDS011;840;47.980;7.830;2023-04-06T06:55:25;5.10;;;4.70;;
1685;SDS011;840;47.980;7.830;2023-04-06T06:57:52;4.93;;;4.50;;
1685;SDS011;840;47.980;7.830;2023-04-06T07:00:19;6.47;;;4.87;;
1685;SDS011;840;47.980;7.830;2023-04-06T07:02:46;5.10;;;4.70;;
1685;SDS011;840;47.980;7.830;2023-04-06T07:05:13;5.67;;;4.83;;
1685;SDS011;840;47.980;7.830;2023-04-06T07:07:42;4.90;;;4.30;;
1685;SDS011;840;47.980;7.830;2023-04-06T07:10:09;4.73;;;4.33;;
1685;SDS011;840;47.980;7.830;2023-04-06T07:12:36;7.63;;;4.43;;
1685;SDS011;840;47.980;7.830;2023-04-06T07:15:03;6.65;;;5.10;;
1685;SDS011;840;47.980;7.830;2023-04-06T07:17:31;5.03;;;4.60;;
1685;SDS011;840;47.980;7.830;2023-04-06T07:20:12;6.53;;;4.70;;
1685;SDS011;840;47.980;7.830;2023-04-06T07:22:39;6.43;;;4.80;;
1685;SDS011;840;47.980;7.830;2023-04-06T07:25:09;4.53;;;4.13;;
1685;SDS011;840;47.980;7.830;2023-04-06T07:27:36;6.73;;;4.93;;
1685;SDS011;840;47.980;7.830;2023-04-06T07:30:03;5.00;;;4.57;;
1685;SDS011;840;47.980;7.830;2023-04-06T07:32:30;5.67;;;5.17;;
1685;SDS011;840;47.980;7.830;2023-04-06T07:34:59;5.50;;;5.00;;
1685;SDS011;840;47.980;7.830;2023-04-06T07:37:26;5.53;;;5.03;;
1685;SDS011;840;47.980;7.830;2023-04-06T07:39:53;5.07;;;4.57;;
1685;SDS011;840;47.980;7.830;2023-04-06T07:42:22;6.70;;;4.77;;
1685;SDS011;840;47.980;7.830;2023-04-06T07:44:49;6.17;;;5.67;;
1685;SDS011;840;47.980;7.830;2023-04-06T07:47:16;6.30;;;4.57;;
1685;SDS011;840;47.980;7.830;2023-04-06T07:49:43;4.70;;;4.27;;
1685;SDS011;840;47.980;7.830;2023-04-06T07:52:10;5.33;;;4.87;;
1685;SDS011;840;47.980;7.830;2023-04-06T07:54:37;4.97;;;4.57;;
1685;SDS011;840;47.980;7.830;2023-04-06T07:57:04;5.13;;;4.63;;
1685;SDS011;840;47.980;7.830;2023-04-06T07:59:32;6.07;;;5.03;;
1685;SDS011;840;47.980;7.830;2023-04-06T08:01:59;5.30;;;4.90;;
1685;SDS011;840;47.980;7.830;2023-04-06T08:04:26;5.23;;;4.73;;
1685;SDS011;840;47.980;7.830;2023-04-06T08:06:53;5.33;;;4.83;;
1685;SDS011;840;47.980;7.830;2023-04-06T08:09:20;4.00;;;3.70;;
1685;SDS011;840;47.980;7.830;2023-04-06T08:11:47;5.17;;;4.70;;
1685;SDS011;840;47.980;7.830;2023-04-06T08:14:14;5.57;;;5.07;;
1685;SDS011;840;47.980;7.830;2023-04-06T08:16:43;5.70;;;5.10;;
1685;SDS011;840;47.980;7.830;2023-04-06T08:19:10;6.50;;;5.90;;
1685;SDS011;840;47.980;7.830;2023-04-06T08:21:37;6.35;;;5.68;;
1685;SDS011;840;47.980;7.830;2023-04-06T08:24:04;6.13;;;5.53;;
1685;SDS011;840;47.980;7.830;2023-04-06T08:26:31;6.53;;;5.93;;
1685;SDS011;840;47.980;7.830;2023-04-06T08:28:58;6.00;;;5.20;;
1685;SDS011;840;47.980;7.830;2023-04-06T08:31:25;7.93;;;6.33;;
1685;SDS011;840;47.980;7.830;2023-04-06T08:33:53;5.97;;;5.00;;
1685;SDS011;840;47.980;7.830;2023-04-06T08:36:20;6.77;;;5.67;;
1685;SDS011;840;47.980;7.830;2023-04-06T08:38:48;6.60;;;5.33;;
1685;SDS011;840;47.980;7.830;2023-04-06T08:41:15;12.90;;;5.63;;
1685;SDS011;840;47.980;7.830;2023-04-06T08:43:43;8.27;;;5.83;;
1685;SDS011;840;47.980;7.830;2023-04-06T08:46:13;5.50;;;5.00;;
1685;SDS011;840;47.980;7.830;2023-04-06T08:48:41;6.63;;;6.00;;
1685;SDS011;840;47.980;7.830;2023-04-06T08:51:10;6.10;;;5.47;;
1685;SDS011;840;47.980;7.830;2023-04-06T08:53:41;7.00;;;5.97;;
1685;SDS011;840;47.980;7.830;2023-04-06T08:56:08;6.20;;;5.60;;
1685;SDS011;840;47.980;7.830;2023-04-06T08:58:37;6.93;;;6.20;;
1685;SDS011;840;47.980;7.830;2023-04-06T09:01:06;5.67;;;5.13;;
1685;SDS011;840;47.980;7.830;2023-04-06T09:03:35;6.93;;;5.90;;
1685;SDS011;840;47.980;7.830;2023-04-06T09:06:04;6.40;;;5.80;;
1685;SDS011;840;47.980;7.830;2023-04-06T09:08:34;6.53;;;5.83;;
1685;SDS011;840;47.980;7.830;2023-04-06T09:11:01;6.53;;;5.93;;
1685;SDS011;840;47.980;7.830;2023-04-06T09:13:29;8.13;;;5.73;;
1685;SDS011;840;47.980;7.830;2023-04-06T09:15:59;5.87;;;5.37;;
1685;SDS011;840;47.980;7.830;2023-04-06T09:18:30;7.47;;;6.77;;
1685;SDS011;840;47.980;7.830;2023-04-06T09:20:58;6.57;;;5.90;;
1685;SDS011;840;47.980;7.830;2023-04-06T09:23:26;6.30;;;5.70;;
1685;SDS011;840;47.980;7.830;2023-04-06T09:26:04;11.67;;;6.10;;
1685;SDS011;840;47.980;7.830;2023-04-06T09:28:45;6.70;;;6.00;;
1685;SDS011;840;47.980;7.830;2023-04-06T09:31:13;6.93;;;5.70;;
1685;SDS011;840;47.980;7.830;2023-04-06T09:33:42;7.20;;;5.70;;
1685;SDS011;840;47.980;7.830;2023-04-06T09:36:09;7.73;;;5.83;;
1685;SDS011;840;47.980;7.830;2023-04-06T09:38:37;6.00;;;5.40;;
1685;SDS011;840;47.980;7.830;2023-04-06T09:41:05;7.03;;;5.50;;
1685;SDS011;840;47.980;7.830;2023-04-06T09:43:32;7.47;;;5.60;;
1685;SDS011;840;47.980;7.830;2023-04-06T09:46:00;7.70;;;5.47;;
1685;SDS011;840;47.980;7.830;2023-04-06T09:48:30;8.20;;;5.83;;
1685;SDS011;840;47.980;7.830;2023-04-06T09:51:02;7.13;;;5.10;;
1685;SDS011;840;47.980;7.830;2023-04-06T09:53:31;7.03;;;5.73;;
1685;SDS011;840;47.980;7.830;2023-04-06T09:56:01;5.80;;;4.97;;
1685;SDS011;840;47.980;7.830;2023-04-06T09:58:33;6.37;;;5.30;;
1685;SDS011;840;47.980;7.830;2023-04-06T10:01:03;5.93;;;5.33;;
1685;SDS011;840;47.980;7.830;2023-04-06T10:03:34;6.93;;;6.00;;
1685;SDS011;840;47.980;7.830;2023-04-06T10:06:09;7.83;;;5.43;;
1685;SDS011;840;47.980;7.830;2023-04-06T10:08:38;6.97;;;6.27;;
1685;SDS011;840;47.980;7.830;2023-04-06T10:11:06;10.70;;;5.80;;
1685;SDS011;840;47.980;7.830;2023-04-06T10:13:36;7.20;;;6.30;;
1685;SDS011;840;47.980;7.830;2023-04-06T10:16:03;6.13;;;5.53;;
1685;SDS011;840;47.980;7.830;2023-04-06T10:18:32;6.20;;;5.60;;
1685;SDS011;840;47.980;7.830;2023-04-06T10:21:00;5.83;;;5.30;;
1685;SDS011;840;47.980;7.830;2023-04-06T10:23:32;8.60;;;5.83;;
1685;SDS011;840;47.980;7.830;2023-04-06T10:26:02;7.10;;;5.80;;
1685;SDS011;840;47.980;7.830;2023-04-06T10:28:30;6.00;;;5.40;;
1685;SDS011;840;47.980;7.830;2023-04-06T10:30:59;7.17;;;6.23;;
1685;SDS011;840;47.980;7.830;2023-04-06T10:33:27;6.80;;;6.07;;
1685;SDS011;840;47.980;7.830;2023-04-06T10:35:54;7.20;;;5.50;;
1685;SDS011;840;47.980;7.830;2023-04-06T10:38:21;6.90;;;5.80;;
1685;SDS011;840;47.980;7.830;2023-04-06T10:41:03;6.30;;;5.00;;
1685;SDS011;840;47.980;7.830;2023-04-06T10:43:32;6.20;;;5.00;;
1685;SDS011;840;47.980;7.830;2023-04-06T10:46:03;5.83;;;4.80;;
1685;SDS011;840;47.980;7.830;2023-04-06T10:48:36;5.63;;;4.90;;
1685;SDS011;840;47.980;7.830;2023-04-06T10:51:08;6.60;;;6.00;;
1685;SDS011;840;47.980;7.830;2023-04-06T10:53:36;5.87;;;5.30;;
1685;SDS011;840;47.980;7.830;2023-04-06T10:56:04;6.00;;;5.17;;
1685;SDS011;840;47.980;7.830;2023-04-06T10:58:37;5.33;;;4.80;;
1685;SDS011;840;47.980;7.830;2023-04-06T11:01:05;5.43;;;4.40;;
1685;SDS011;840;47.980;7.830;2023-04-06T11:03:36;8.37;;;5.23;;
1685;SDS011;840;47.980;7.830;2023-04-06T11:06:09;5.80;;;5.00;;
1685;SDS011;840;47.980;7.830;2023-04-06T11:08:36;10.00;;;5.07;;
1685;SDS011;840;47.980;7.830;2023-04-06T11:11:05;7.73;;;5.27;;
1685;SDS011;840;47.980;7.830;2023-04-06T11:13:37;6.87;;;4.97;;
1685;SDS011;840;47.980;7.830;2023-04-06T11:16:06;4.30;;;3.90;;
1685;SDS011;840;47.980;7.830;2023-04-06T11:18:38;7.33;;;4.27;;
1685;SDS011;840;47.980;7.830;2023-04-06T11:21:12;6.37;;;3.80;;
1685;SDS011;840;47.980;7.830;2023-04-06T11:23:39;5.90;;;3.47;;
1685;SDS011;840;47.980;7.830;2023-04-06T11:26:10;5.50;;;4.00;;
1685;SDS011;840;47.980;7.830;2023-04-06T11:28:42;8.13;;;3.37;;
1685;SDS011;840;47.980;7.830;2023-04-06T11:31:11;5.00;;;3.07;;
1685;SDS011;840;47.980;7.830;2023-04-06T11:33:38;5.53;;;4.33;;
1685;SDS011;840;47.980;7.830;2023-04-06T11:36:05;5.20;;;3.40;;
1685;SDS011;840;47.980;7.830;2023-04-06T11:38:33;5.10;;;4.53;;
1685;SDS011;840;47.980;7.830;2023-04-06T11:41:00;4.40;;;3.70;;
1685;SDS011;840;47.980;7.830;2023-04-06T11:43:28;4.40;;;3.97;;
1685;SDS011;840;47.980;7.830;2023-04-06T11:46:02;4.43;;;4.00;;
1685;SDS011;840;47.980;7.830;2023-04-06T11:48:33;5.37;;;3.87;;
1685;SDS011;840;47.980;7.830;2023-04-06T11:51:10;4.63;;;4.00;;
1685;SDS011;840;47.980;7.830;2023-04-06T11:53:43;4.47;;;4.07;;
1685;SDS011;840;47.980;7.830;2023-04-06T11:56:10;5.27;;;3.87;;
1685;SDS011;840;47.980;7.830;2023-04-06T11:58:37;5.23;;;4.63;;
1685;SDS011;840;47.980;7.830;2023-04-06T12:01:04;4.50;;;4.10;;
1685;SDS011;840;47.980;7.830;2023-04-06T12:03:30;4.43;;;4.00;;
1685;SDS011;840;47.980;7.830;2023-04-06T12:05:59;6.03;;;3.83;;
1685;SDS011;840;47.980;7.830;2023-04-06T12:08:26;4.87;;;4.30;;
1685;SDS011;840;47.980;7.830;2023-04-06T12:10:53;4.87;;;4.47;;
1685;SDS011;840;47.980;7.830;2023-04-06T12:13:20;5.27;;;4.67;;
1685;SDS011;840;47.980;7.830;2023-04-06T12:15:47;4.90;;;4.27;;
1685;SDS011;840;47.980;7.830;2023-04-06T12:18:14;5.03;;;4.57;;
1685;SDS011;840;47.980;7.830;2023-04-06T12:20:43;10.17;;;5.17;;
1685;SDS011;840;47.980;7.830;2023-04-06T12:23:10;5.40;;;4.90;;
1685;SDS011;840;47.980;7.830;2023-04-06T12:25:38;4.93;;;4.20;;
1685;SDS011;840;47.980;7.830;2023-04-06T12:28:06;7.90;;;5.00;;
1685;SDS011;840;47.980;7.830;2023-04-06T12:30:34;4.63;;;4.23;;
1685;SDS011;840;47.980;7.830;2023-04-06T12:33:01;8.10;;;5.10;;
1685;SDS011;840;47.980;7.830;2023-04-06T12:35:28;6.33;;;4.30;;
1685;SDS011;840;47.980;7.830;2023-04-06T12:38:00;4.50;;;4.07;;
1685;SDS011;840;47.980;7.830;2023-04-06T12:40:27;5.87;;;4.10;;
1685;SDS011;840;47.980;7.830;2023-04-06T12:42:53;6.53;;;4.10;;
1685;SDS011;840;47.980;7.830;2023-04-06T12:45:20;5.60;;;4.23;;
1685;SDS011;840;47.980;7.830;2023-04-06T12:47:47;5.53;;;3.93;;
1685;SDS011;840;47.980;7.830;2023-04-06T12:50:14;6.03;;;4.83;;
1685;SDS011;840;47.980;7.830;2023-04-06T12:52:42;4.67;;;4.20;;
1685;SDS011;840;47.980;7.830;2023-04-06T12:55:11;6.67;;;4.30;;
1685;SDS011;840;47.980;7.830;2023-04-06T12:57:37;5.17;;;4.20;;
1685;SDS011;840;47.980;7.830;2023-04-06T13:00:05;4.23;;;3.93;;
1685;SDS011;840;47.980;7.830;2023-04-06T13:02:33;6.10;;;4.60;;
1685;SDS011;840;47.980;7.830;2023-04-06T13:05:15;6.67;;;3.77;;
1685;SDS011;840;47.980;7.830;2023-04-06T13:07:43;5.60;;;4.17;;
1685;SDS011;840;47.980;7.830;2023-04-06T13:10:13;5.83;;;4.00;;
1685;SDS011;840;47.980;7.830;2023-04-06T13:12:40;6.17;;;4.37;;
1685;SDS011;840;47.980;7.830;2023-04-06T13:15:07;5.33;;;4.10;;
1685;SDS011;840;47.980;7.830;2023-04-06T13:17:34;5.17;;;4.10;;
1685;SDS011;840;47.980;7.830;2023-04-06T13:20:01;5.90;;;4.13;;
1685;SDS011;840;47.980;7.830;2023-04-06T13:22:29;5.00;;;4.60;;
1685;SDS011;840;47.980;7.830;2023-04-06T13:24:55;4.90;;;4.20;;
1685;SDS011;840;47.980;7.830;2023-04-06T13:27:23;3.87;;;3.47;;
1685;SDS011;840;47.980;7.830;2023-04-06T13:29:52;4.67;;;4.23;;
1685;SDS011;840;47.980;7.830;2023-04-06T13:32:20;4.30;;;3.90;;
1685;SDS011;840;47.980;7.830;2023-04-06T13:34:47;5.10;;;3.73;;
1685;SDS011;840;47.980;7.830;2023-04-06T13:37:14;5.13;;;3.70;;
1685;SDS011;840;47.980;7.830;2023-04-06T13:39:41;6.27;;;4.37;;
1685;SDS011;840;47.980;7.830;2023-04-06T13:42:08;4.60;;;4.20;;
1685;SDS011;840;47.980;7.830;2023-04-06T13:44:36;6.10;;;4.60;;
1685;SDS011;840;47.980;7.830;2023-04-06T13:47:03;5.53;;;4.40;;
1685;SDS011;840;47.980;7.830;2023-04-06T13:49:30;7.17;;;5.70;;
1685;SDS011;840;47.980;7.830;2023-04-06T13:51:57;5.50;;;3.70;;
1685;SDS011;840;47.980;7.830;2023-04-06T13:54:25;6.67;;;5.60;;
1685;SDS011;840;47.980;7.830;2023-04-06T13:56:52;5.40;;;4.00;;
1685;SDS011;840;47.980;7.830;2023-04-06T13:59:20;7.90;;;3.87;;
1685;SDS011;840;47.980;7.830;2023-04-06T14:01:48;5.53;;;4.93;;
1685;SDS011;840;47.980;7.830;2023-04-06T14:04:15;5.37;;;4.13;;
1685;SDS011;840;47.980;7.830;2023-04-06T14:06:44;5.80;;;4.20;;
1685;SDS011;840;47.980;7.830;2023-04-06T14:09:11;5.60;;;4.83;;
1685;SDS011;840;47.980;7.830;2023-04-06T14:11:38;5.77;;;4.47;;
1685;SDS011;840;47.980;7.830;2023-04-06T14:14:05;6.10;;;4.60;;
1685;SDS011;840;47.980;7.830;2023-04-06T14:16:32;4.77;;;3.73;;
1685;SDS011;840;47.980;7.830;2023-04-06T14:19:01;5.97;;;4.30;;
1685;SDS011;840;47.980;7.830;2023-04-06T14:21:27;4.87;;;4.00;;
1685;SDS011;840;47.980;7.830;2023-04-06T14:23:54;5.33;;;4.60;;
1685;SDS011;840;47.980;7.830;2023-04-06T14:26:21;4.93;;;4.00;;
1685;SDS011;840;47.980;7.830;2023-04-06T14:28:48;6.03;;;4.50;;
1685;SDS011;840;47.980;7.830;2023-04-06T14:31:17;5.10;;;4.17;;
1685;SDS011;840;47.980;7.830;2023-04-06T14:33:44;5.40;;;4.90;;
1685;SDS011;840;47.980;7.830;2023-04-06T14:36:12;3.93;;;3.63;;
1685;SDS011;840;47.980;7.830;2023-04-06T14:38:39;6.67;;;5.10;;
1685;SDS011;840;47.980;7.830;2023-04-06T14:41:08;5.10;;;4.60;;
1685;SDS011;840;47.980;7.830;2023-04-06T14:43:35;5.93;;;4.80;;
1685;SDS011;840;47.980;7.830;2023-04-06T14:46:02;5.70;;;4.70;;
1685;SDS011;840;47.980;7.830;2023-04-06T14:50:55;4.87;;;3.80;;
1685;SDS011;840;47.980;7.830;2023-04-06T14:53:24;5.20;;;4.40;;
1685;SDS011;840;47.980;7.830;2023-04-06T14:55:51;5.43;;;4.93;;
1685;SDS011;840;47.980;7.830;2023-04-06T14:58:18;7.00;;;4.50;;
1685;SDS011;840;47.980;7.830;2023-04-06T15:00:45;4.90;;;4.17;;
1685;SDS011;840;47.980;7.830;2023-04-06T15:03:12;7.70;;;4.87;;
1685;SDS011;840;47.980;7.830;2023-04-06T15:05:39;4.07;;;3.70;;
1685;SDS011;840;47.980;7.830;2023-04-06T15:08:06;5.20;;;4.70;;
1685;SDS011;840;47.980;7.830;2023-04-06T15:10:35;7.50;;;3.20;;
1685;SDS011;840;47.980;7.830;2023-04-06T15:13:02;4.87;;;4.10;;
1685;SDS011;840;47.980;7.830;2023-04-06T15:15:29;5.20;;;4.33;;
1685;SDS011;840;47.980;7.830;2023-04-06T15:17:56;5.90;;;4.43;;
1685;SDS011;840;47.980;7.830;2023-04-06T15:20:22;7.33;;;3.60;;
1685;SDS011;840;47.980;7.830;2023-04-06T15:22:49;5.80;;;4.10;;
1685;SDS011;840;47.980;7.830;2023-04-06T15:25:16;6.17;;;4.37;;
1685;SDS011;840;47.980;7.830;2023-04-06T15:27:44;4.53;;;3.83;;
1685;SDS011;840;47.980;7.830;2023-04-06T15:30:12;5.13;;;4.00;;
1685;SDS011;840;47.980;7.830;2023-04-06T15:32:40;5.30;;;4.80;;
1685;SDS011;840;47.980;7.830;2023-04-06T15:35:09;5.10;;;3.80;;